Flag for Spain

Past Weather in 36°50'09.9"N, 2°28'21.3"W, Spain — Yesterday and Last 2 Weeks

Currently: 65 °F. Mild. (Weather station: Almeria / Aeropuerto, Spain). See more current weather

Past Weather in 36°50'09.9"N, 2°28'21.3"W — Graph

°F

36°50'09.9"N, 2°28'21.3"W Temperature Yesterday

Maximum temperature yesterday: 77 °F (at 3:00 pm)
Minimum temperature yesterday: 58 °F (at 5:00 am)
Average temperature yesterday: 66 °F

High & Low Weather Summary for the Past Weeks

 TemperatureHumidityPressure
High83 °F (May 10, 4:00 pm)92% (May 14, 2:00 am)30.14 "Hg (May 14, 2:00 am)
Low58 °F (May 16, 7:00 am)22% (May 10, 4:00 pm)29.64 "Hg (May 14, 7:00 pm)
Average68 °F64%29.90 "Hg
* Reported May 5 10:00 pm — May 20 10:00 pm, 36°50'09.9"N, 2°28'21.3"W. Weather by CustomWeather, © 2024

Note: Actual official high and low records may vary slightly from our data, if they occured in-between our weather recording intervals... More about our weather records

36°50'09.9"N, 2°28'21.3"W Weather History for the Previous 24 Hours

Scroll right to see more
 ConditionsComfort  
Time TempWeatherWind HumidityBarometerVisibility
10:00 pm
Mon, May 20
66 °FMild.16 mph65%29.87 "HgN/A
9:00 pm67 °FMild.21 mph61%29.85 "HgN/A
8:00 pm69 °FPassing clouds.23 mph61%29.84 "Hg22 mi
6:00 pm71 °FMild.28 mph56%29.84 "HgN/A
5:00 pm73 °FPassing clouds.29 mph51%29.84 "Hg22 mi
4:00 pm75 °FMild.25 mph48%29.85 "HgN/A
3:00 pm77 °FWarm.23 mph41%29.85 "HgN/A
2:00 pm71 °FPassing clouds.8 mph67%29.87 "Hg22 mi
1:00 pm69 °FMild.7 mph67%29.88 "HgN/A
12:00 pm69 °FMild.7 mph71%29.88 "HgN/A
11:00 am68 °FPassing clouds.8 mph70%29.87 "Hg22 mi
10:00 am67 °FMild.5 mph70%29.87 "HgN/A
9:00 am65 °FMild.3 mph74%29.86 "HgN/A
8:00 am62 °FPassing clouds.2 mph83%29.85 "Hg19 mi
7:00 am59 °FCool.2 mph87%29.83 "HgN/A
6:00 am59 °FCool.6 mph86%29.81 "HgN/A
5:00 am58 °FPassing clouds.7 mph84%29.81 "Hg19 mi
4:00 am60 °FCool.5 mph85%29.80 "HgN/A
3:00 am62 °FMild.3 mph82%29.80 "HgN/A
2:00 am64 °FMild.7 mph77%29.80 "HgN/A
1:00 am65 °FMild.9 mph72%29.80 "HgN/A
12:00 am66 °FMild.5 mph64%29.79 "HgN/A
Weather by CustomWeather, © 2024

See weather overview